Time;durP1;ratioP1;P1;durP2;ratioP2;P2;SDS_P1;SDS_P2;PMS_P1;PMS_P2;Temp;Humidity;BMP_temperature;BMP_pressure;BME280_temperature;BME280_humidity;BME280_pressure;Samples;Min_cycle;Max_cycle;Signal;HPM_P1;HPM_P2
2021/11/20 00:00:23;;;;;;;905.70;841.97;;;;;;;13.08;67.16;101877.72;686800;28;22451;-69
2021/11/20 00:00:46;;;;;;;897.22;833.72;;;;;;;13.10;67.15;101885.69;683758;28;115756;-68
2021/11/20 00:01:10;;;;;;;918.13;854.00;;;;;;;13.10;67.05;101883.00;685427;28;69612;-69
2021/11/20 00:01:33;;;;;;;921.05;856.83;;;;;;;13.09;67.15;101882.16;683693;28;113318;-68
2021/11/20 00:01:57;;;;;;;920.13;856.03;;;;;;;13.09;67.12;101878.59;686318;28;47138;-68
2021/11/20 00:02:24;;;;;;;914.92;850.97;;;;;;;13.10;67.16;101878.44;684562;28;90092;-68
2021/11/20 00:02:46;;;;;;;919.50;855.28;;;;;;;13.10;67.22;101880.28;681771;28;136568;-68
2021/11/20 00:03:09;;;;;;;913.03;849.03;;;;;;;13.09;67.19;101881.31;686696;28;23474;-68
2021/11/20 00:03:31;;;;;;;913.05;849.10;;;;;;;13.08;67.21;101880.44;684540;28;92191;-68
2021/11/20 00:03:53;;;;;;;899.33;835.72;;;;;;;13.07;67.07;101886.91;685893;28;46316;-69
2021/11/20 00:04:16;;;;;;;897.75;834.25;;;;;;;13.07;67.10;101881.47;686329;28;45231;-69
2021/11/20 00:04:38;;;;;;;910.53;846.70;;;;;;;13.07;67.11;101877.88;685724;28;46407;-68
2021/11/20 00:05:00;;;;;;;897.92;834.53;;;;;;;13.05;67.33;101878.06;691925;28;29472;-69
2021/11/20 00:05:25;;;;;;;910.03;846.08;;;;;;;13.05;67.34;101882.66;691038;28;40896;-69
2021/11/20 00:05:50;;;;;;;907.28;843.40;;;;;;;13.05;67.07;101878.06;688750;28;114410;-69
2021/11/20 00:06:13;;;;;;;913.70;849.65;;;;;;;13.05;67.28;101875.34;689060;28;115156;-68
2021/11/20 00:06:36;;;;;;;903.50;839.70;;;;;;;13.06;67.40;101868.91;691378;28;46239;-68
2021/11/20 00:07:01;;;;;;;917.78;853.47;;;;;;;13.08;67.23;101869.59;685614;28;92098;-69
2021/11/20 00:07:23;;;;;;;892.55;829.15;;;;;;;13.09;67.47;101879.44;684390;28;90713;-68
2021/11/20 00:07:44;;;;;;;917.10;852.78;;;;;;;13.09;67.38;101867.75;684464;28;46413;-68
2021/11/20 00:08:06;;;;;;;927.65;863.03;;;;;;;13.09;67.32;101870.47;686973;28;21586;-68
2021/11/20 00:08:28;;;;;;;911.47;847.42;;;;;;;13.09;67.32;101867.75;685416;28;70199;-69
2021/11/20 00:08:50;;;;;;;907.15;843.22;;;;;;;13.09;67.41;101873.16;686209;28;46240;-69
2021/11/20 00:09:16;;;;;;;922.95;858.63;;;;;;;13.07;67.21;101876.03;685159;28;69382;-69
2021/11/20 00:09:37;;;;;;;914.17;850.05;;;;;;;13.08;67.19;101882.31;684390;28;92276;-69
2021/11/20 00:10:00;;;;;;;917.97;853.78;;;;;;;13.09;67.42;101873.16;686097;28;46320;-69
2021/11/20 00:10:23;;;;;;;925.00;860.55;;;;;;;13.07;67.20;101865.19;686164;28;47449;-70
2021/11/20 00:10:49;;;;;;;925.83;861.35;;;;;;;13.08;67.23;101872.31;684490;28;92018;-70
2021/11/20 00:11:13;;;;;;;918.58;854.33;;;;;;;13.08;67.11;101866.88;683615;28;113817;-69
2021/11/20 00:11:37;;;;;;;931.97;867.30;;;;;;;13.08;67.07;101866.03;684539;28;92001;-69
2021/11/20 00:12:02;;;;;;;920.35;856.03;;;;;;;13.08;67.02;101871.47;683930;28;115844;-69
2021/11/20 00:12:26;;;;;;;915.92;851.75;;;;;;;13.06;67.13;101871.63;685400;28;115276;-70
2021/11/20 00:12:47;;;;;;;916.58;852.40;;;;;;;13.06;67.36;101885.19;686311;28;70158;-70
2021/11/20 00:13:11;;;;;;;909.15;845.13;;;;;;;13.06;67.24;101874.34;687296;28;45281;-70
2021/11/20 00:13:33;;;;;;;905.97;842.17;;;;;;;13.08;67.18;101879.59;685694;28;90696;-70
2021/11/20 00:13:55;;;;;;;910.92;846.83;;;;;;;13.09;67.34;101878.59;687172;28;46472;-69
2021/11/20 00:14:18;;;;;;;919.92;855.65;;;;;;;13.07;67.18;101870.63;685647;28;46051;-69
2021/11/20 00:14:40;;;;;;;923.42;859.10;;;;;;;13.07;67.35;101880.59;685148;28;70237;-69
2021/11/20 00:15:02;;;;;;;916.13;852.08;;;;;;;13.08;67.25;101874.19;685680;28;46305;-69
2021/11/20 00:15:27;;;;;;;912.88;849.00;;;;;;;13.07;67.12;101869.75;685728;28;46729;-69
2021/11/20 00:15:53;;;;;;;899.08;835.47;;;;;;;13.05;67.16;101874.50;683303;28;114338;-69
2021/11/20 00:16:14;;;;;;;903.83;840.03;;;;;;;13.04;67.54;101881.81;683486;28;115095;-69
2021/11/20 00:16:36;;;;;;;899.45;835.85;;;;;;;13.07;67.19;101873.34;686242;28;45236;-69
2021/11/20 00:17:01;;;;;;;892.00;828.65;;;;;;;13.08;67.28;101871.47;686448;28;46984;-69
2021/11/20 00:17:23;;;;;;;905.30;841.40;;;;;;;13.08;67.28;101866.88;687356;28;46807;-69
2021/11/20 00:17:45;;;;;;;908.92;844.83;;;;;;;13.08;67.24;101861.44;688693;28;44398;-69
2021/11/20 00:18:07;;;;;;;896.45;832.75;;;;;;;13.08;67.38;101869.59;689272;28;21116;-69
2021/11/20 00:18:32;;;;;;;899.33;835.75;;;;;;;13.08;67.50;101861.44;688319;28;45364;-69
2021/11/20 00:18:54;;;;;;;886.47;823.38;;;;;;;13.09;67.36;101865.03;685402;28;139120;-69
2021/11/20 00:19:18;;;;;;;899.83;836.42;;;;;;;13.08;67.33;101872.31;684855;28;69242;-69
2021/11/20 00:19:39;;;;;;;926.47;862.00;;;;;;;13.08;67.29;101871.47;685129;28;69295;-69
2021/11/20 00:20:03;;;;;;;905.10;841.13;;;;;;;13.08;67.21;101872.31;688201;28;22554;-69
2021/11/20 00:20:30;;;;;;;924.65;859.53;;;;;;;13.06;67.23;101868.91;685240;28;60384;-69
2021/11/20 00:20:55;;;;;;;921.92;857.38;;;;;;;13.07;67.31;101877.88;684260;28;93051;-69
2021/11/20 00:21:22;;;;;;;920.33;856.03;;;;;;;13.06;67.32;101868.06;687445;28;36933;-69
2021/11/20 00:21:51;;;;;;;933.63;868.50;;;;;;;13.07;67.32;101872.47;684522;28;136285;-70
2021/11/20 00:22:16;;;;;;;914.88;850.60;;;;;;;13.08;67.37;101872.31;684481;28;138792;-69
2021/11/20 00:22:40;;;;;;;919.30;854.83;;;;;;;13.08;67.31;101866.03;685290;28;115010;-69
2021/11/20 00:23:02;;;;;;;937.80;872.80;;;;;;;13.08;67.37;101857.91;687983;28;67480;-69
2021/11/20 00:23:27;;;;;;;928.25;863.53;;;;;;;13.10;67.39;101858.56;687701;28;69429;-69
2021/11/20 00:23:53;;;;;;;935.88;870.88;;;;;;;13.11;67.33;101865.72;686434;28;115066;-69
2021/11/20 00:24:19;;;;;;;914.83;850.63;;;;;;;13.11;67.41;101871.13;685450;28;138117;-69
2021/11/20 00:24:45;;;;;;;919.75;855.40;;;;;;;13.12;67.41;101868.25;685455;28;137821;-69
2021/11/20 00:25:20;;;;;;;918.85;854.55;;;;;;;13.13;67.30;101869.97;685766;28;136049;-69
2021/11/20 00:25:48;;;;;;;933.83;868.95;;;;;;;13.14;67.24;101876.22;685494;28;136051;-69
2021/11/20 00:26:13;;;;;;;924.20;859.70;;;;;;;13.13;67.22;101869.09;685536;28;137796;-69
2021/11/20 00:26:36;;;;;;;920.88;856.47;;;;;;;13.10;67.17;101858.56;686334;28;115091;-69
2021/11/20 00:27:00;;;;;;;928.20;863.53;;;;;;;13.12;67.09;101867.41;687963;28;70281;-69
2021/11/20 00:27:25;;;;;;;924.90;860.38;;;;;;;13.09;67.04;101860.44;686803;28;113931;-69
2021/11/20 00:27:49;;;;;;;906.33;842.05;;;;;;;13.06;67.30;101852.66;684011;28;137570;-69
2021/11/20 00:28:17;;;;;;;920.45;855.92;;;;;;;13.09;67.09;101863.16;689509;28;21541;-69
2021/11/20 00:28:41;;;;;;;928.38;863.67;;;;;;;13.09;67.33;101860.44;682592;28;137546;-69
2021/11/20 00:29:20;;;;;;;916.85;852.53;;;;;;;13.09;67.17;101857.75;681697;28;92266;-69
2021/11/20 00:29:46;;;;;;;908.92;844.83;;;;;;;13.10;67.43;101858.56;681087;28;137705;-69
2021/11/20 00:30:14;;;;;;;920.63;856.17;;;;;;;13.10;67.35;101864.00;682804;28;38172;-69
2021/11/20 00:30:41;;;;;;;927.38;862.75;;;;;;;13.09;67.19;101868.59;678821;28;135314;-69
2021/11/20 00:31:06;;;;;;;923.22;858.67;;;;;;;13.08;67.41;101860.63;678860;28;138288;-70
2021/11/20 00:31:32;;;;;;;905.80;841.90;;;;;;;13.09;67.21;101865.03;681714;28;67124;-70
2021/11/20 00:31:56;;;;;;;925.15;860.55;;;;;;;13.09;67.13;101863.16;678373;28;137847;-70
2021/11/20 00:32:21;;;;;;;919.10;854.75;;;;;;;13.09;67.32;101856.91;678181;29;92217;-69
2021/11/20 00:32:48;;;;;;;933.42;868.63;;;;;;;13.08;67.44;101861.44;678805;28;113601;-69
2021/11/20 00:33:11;;;;;;;912.83;848.67;;;;;;;13.10;67.17;101855.88;680073;28;137936;-69
2021/11/20 00:33:33;;;;;;;916.70;852.40;;;;;;;13.09;67.44;101865.03;682173;28;68472;-69
2021/11/20 00:33:55;;;;;;;923.80;859.20;;;;;;;13.08;67.37;101856.03;679964;29;44908;-69
2021/11/20 00:34:19;;;;;;;916.97;852.67;;;;;;;13.11;67.38;101861.13;678154;29;45274;-69
2021/11/20 00:34:45;;;;;;;910.80;846.65;;;;;;;13.10;67.15;101866.72;676707;29;113598;-69
2021/11/20 00:35:09;;;;;;;917.45;853.10;;;;;;;13.09;67.31;101862.31;678794;28;115312;-69
2021/11/20 00:35:33;;;;;;;919.75;855.22;;;;;;;13.07;67.35;101856.19;676947;29;115214;-69
2021/11/20 00:35:57;;;;;;;927.90;863.15;;;;;;;13.09;67.23;101862.31;681691;28;115118;-69
2021/11/20 00:36:21;;;;;;;923.08;858.50;;;;;;;13.07;67.12;101859.78;687619;28;67473;-69
2021/11/20 00:36:43;;;;;;;919.97;855.58;;;;;;;13.07;67.20;101865.19;684404;28;92255;-69
2021/11/20 00:37:08;;;;;;;924.90;860.22;;;;;;;13.08;67.41;101866.88;683263;28;114709;-69
2021/11/20 00:37:30;;;;;;;928.25;863.50;;;;;;;13.08;67.24;101868.75;687580;28;46761;-69
2021/11/20 00:37:52;;;;;;;931.38;866.28;;;;;;;13.09;67.28;101871.31;685510;28;23476;-69
2021/11/20 00:38:14;;;;;;;919.40;855.00;;;;;;;13.08;67.42;101858.75;684868;28;69407;-69
2021/11/20 00:38:37;;;;;;;909.20;845.20;;;;;;;13.10;67.35;101864.00;686177;28;45313;-68
2021/11/20 00:38:58;;;;;;;911.20;847.00;;;;;;;13.11;67.30;101869.25;688082;28;69787;-69
2021/11/20 00:39:22;;;;;;;918.72;854.42;;;;;;;13.10;67.45;101861.28;688246;28;46279;-69
2021/11/20 00:39:44;;;;;;;925.80;861.10;;;;;;;13.09;67.11;101865.03;686643;28;92144;-69
2021/11/20 00:40:09;;;;;;;913.75;849.33;;;;;;;13.10;67.28;101864.00;685986;28;21528;-69
2021/11/20 00:40:37;;;;;;;913.50;849.25;;;;;;;13.10;67.21;101864.00;682665;28;137883;-69
2021/11/20 00:41:01;;;;;;;923.17;858.63;;;;;;;13.09;67.48;101860.44;682633;28;137677;-69
2021/11/20 00:41:25;;;;;;;930.22;865.67;;;;;;;13.10;67.33;101861.28;683984;28;91000;-69
2021/11/20 00:41:47;;;;;;;926.45;861.95;;;;;;;13.10;67.35;101864.88;683982;28;93152;-68
2021/11/20 00:42:11;;;;;;;923.28;858.88;;;;;;;13.11;67.20;101868.41;688393;28;46317;-69
2021/11/20 00:42:34;;;;;;;918.13;853.83;;;;;;;13.10;67.13;101870.28;684326;28;92274;-69
2021/11/20 00:42:56;;;;;;;924.88;860.25;;;;;;;13.09;67.40;101862.31;685267;28;89209;-69
2021/11/20 00:43:19;;;;;;;936.08;871.22;;;;;;;13.12;67.43;101867.41;684538;28;47458;-68
2021/11/20 00:43:43;;;;;;;935.92;871.00;;;;;;;13.12;67.34;101878.25;684019;28;70219;-69
2021/11/20 00:44:06;;;;;;;927.90;863.28;;;;;;;13.11;67.41;101871.97;679461;28;115083;-68
2021/11/20 00:44:27;;;;;;;911.70;847.50;;;;;;;13.07;67.33;101859.78;683360;28;21572;-69
2021/11/20 00:44:49;;;;;;;910.72;846.50;;;;;;;13.10;67.33;101867.59;682354;28;45251;-69
2021/11/20 00:45:11;;;;;;;929.78;865.05;;;;;;;13.11;67.24;101861.13;684557;28;46400;-68
2021/11/20 00:45:33;;;;;;;925.30;860.67;;;;;;;13.13;67.34;101869.09;685858;28;45250;-69
2021/11/20 00:45:55;;;;;;;917.80;853.38;;;;;;;13.12;67.22;101862.00;686464;28;46355;-69
2021/11/20 00:46:18;;;;;;;922.35;857.75;;;;;;;13.12;67.28;101859.28;688434;28;44443;-69
2021/11/20 00:46:41;;;;;;;918.28;853.92;;;;;;;13.11;67.25;101858.41;687850;28;69697;-69
2021/11/20 00:47:03;;;;;;;915.90;851.50;;;;;;;13.10;67.22;101858.56;687614;28;66941;-69
2021/11/20 00:47:25;;;;;;;914.92;850.45;;;;;;;13.10;67.17;101859.44;688329;28;44375;-69
2021/11/20 00:47:48;;;;;;;921.78;857.05;;;;;;;13.09;67.40;101857.75;686184;28;70222;-69
2021/11/20 00:48:11;;;;;;;935.15;870.10;;;;;;;13.11;67.44;101857.56;688560;28;44270;-69
2021/11/20 00:48:32;;;;;;;927.03;862.35;;;;;;;13.12;67.10;101857.41;687536;28;70833;-69
2021/11/20 00:48:54;;;;;;;928.85;864.17;;;;;;;13.14;67.34;101863.50;688210;28;46308;-68
2021/11/20 00:49:17;;;;;;;926.03;861.38;;;;;;;13.14;67.21;101863.50;688421;28;45122;-69
2021/11/20 00:49:39;;;;;;;926.85;862.22;;;;;;;13.14;67.41;101859.94;687569;28;70115;-69
2021/11/20 00:50:01;;;;;;;922.58;858.03;;;;;;;13.14;67.20;101863.50;689367;28;22433;-69
2021/11/20 00:50:24;;;;;;;915.40;851.15;;;;;;;13.14;67.09;101857.25;687555;28;69955;-69
2021/11/20 00:50:50;;;;;;;914.90;850.58;;;;;;;13.15;67.20;101861.66;687716;28;67487;-69
2021/11/20 00:51:14;;;;;;;913.03;848.83;;;;;;;13.13;67.35;101863.66;685266;28;136384;-69
2021/11/20 00:51:36;;;;;;;927.90;863.28;;;;;;;13.13;67.29;101860.94;688450;28;90833;-68
2021/11/20 00:51:57;;;;;;;923.97;859.43;;;;;;;13.11;67.21;101866.53;691182;28;46297;-69
2021/11/20 00:52:20;;;;;;;926.13;861.47;;;;;;;13.10;67.21;101861.28;688489;28;39859;-69
2021/11/20 00:52:43;;;;;;;934.05;869.05;;;;;;;13.11;67.31;101863.84;683572;28;92232;-69
2021/11/20 00:53:05;;;;;;;929.25;864.45;;;;;;;13.10;67.38;101855.88;686034;28;46315;-69
2021/11/20 00:53:26;;;;;;;932.17;867.38;;;;;;;13.09;67.09;101862.31;685634;28;44368;-69
2021/11/20 00:53:48;;;;;;;935.20;870.30;;;;;;;13.08;67.46;101866.88;686435;28;23458;-68
2021/11/20 00:54:10;;;;;;;931.65;866.92;;;;;;;13.07;67.28;101862.50;686650;28;47432;-69
2021/11/20 00:54:31;;;;;;;921.53;857.13;;;;;;;13.08;67.25;101864.16;686215;28;44312;-69
2021/11/20 00:54:53;;;;;;;939.33;874.30;;;;;;;13.09;67.43;101856.91;686478;28;23269;-69
2021/11/20 00:55:20;;;;;;;940.20;875.20;;;;;;;13.10;67.38;101861.28;685600;28;44363;-69
2021/11/20 00:55:43;;;;;;;936.47;871.58;;;;;;;13.08;67.46;101864.16;682416;28;137780;-68
2021/11/20 00:56:06;;;;;;;920.78;856.28;;;;;;;13.08;67.31;101853.31;682322;28;70145;-69
2021/11/20 00:56:28;;;;;;;922.92;858.35;;;;;;;13.10;67.42;101855.88;682232;28;68010;-68
2021/11/20 00:56:51;;;;;;;927.45;862.78;;;;;;;13.09;67.46;101854.19;683051;28;44375;-70
2021/11/20 00:57:12;;;;;;;916.80;852.42;;;;;;;13.10;67.57;101864.00;683392;28;44385;-69
2021/11/20 00:57:35;;;;;;;918.03;853.72;;;;;;;13.11;67.24;101860.28;682155;28;44357;-68
2021/11/20 00:58:02;;;;;;;915.05;850.53;;;;;;;13.09;67.42;101863.16;681321;28;136375;-68
2021/11/20 00:58:25;;;;;;;914.35;849.95;;;;;;;13.11;67.50;101854.84;683820;28;92095;-69
2021/11/20 00:58:47;;;;;;;904.90;840.80;;;;;;;13.10;67.47;101855.88;685768;28;44561;-69
2021/11/20 00:59:10;;;;;;;909.20;845.10;;;;;;;13.10;67.21;101861.28;687548;28;46300;-69
2021/11/20 00:59:32;;;;;;;922.03;857.53;;;;;;;13.08;67.40;101849.75;685159;28;66809;-68
2021/11/20 00:59:53;;;;;;;922.55;857.75;;;;;;;13.08;67.53;101852.47;684143;28;44998;-68
2021/11/20 01:00:17;;;;;;;924.17;859.50;;;;;;;13.07;67.49;101856.19;686414;28;21434;-69
2021/11/20 01:00:45;;;;;;;904.58;840.58;;;;;;;13.06;67.41;101854.53;684183;28;90293;-69
2021/11/20 01:01:09;;;;;;;919.20;854.60;;;;;;;13.06;67.40;101852.66;682379;28;138003;-69
2021/11/20 01:01:32;;;;;;;918.10;853.65;;;;;;;13.08;67.43;101849.75;684057;28;92768;-69
2021/11/20 01:01:59;;;;;;;914.38;849.92;;;;;;;13.07;67.45;101848.06;682357;28;90392;-68
2021/11/20 01:02:20;;;;;;;908.53;844.45;;;;;;;13.09;67.34;101855.03;682384;28;136486;-68
2021/11/20 01:02:43;;;;;;;913.13;848.85;;;;;;;13.07;67.38;101851.63;684663;28;92256;-69
2021/11/20 01:03:06;;;;;;;924.60;860.03;;;;;;;13.06;67.52;101851.81;686166;28;23389;-69
2021/11/20 01:03:30;;;;;;;926.92;862.33;;;;;;;13.09;67.48;101856.91;684351;28;69647;-68
2021/11/20 01:03:52;;;;;;;924.28;859.67;;;;;;;13.08;67.58;101847.91;685553;28;91977;-68
2021/11/20 01:04:13;;;;;;;924.92;860.40;;;;;;;13.09;67.28;101870.47;686881;28;22349;-69
2021/11/20 01:04:36;;;;;;;925.92;861.38;;;;;;;13.09;67.43;101854.19;683191;28;43723;-69
2021/11/20 01:04:58;;;;;;;924.38;859.75;;;;;;;13.09;67.21;101863.16;680741;28;44396;-69
2021/11/20 01:05:20;;;;;;;922.38;857.83;;;;;;;13.10;67.58;101854.03;680537;28;69416;-69
2021/11/20 01:05:42;;;;;;;908.85;844.65;;;;;;;13.09;67.52;101857.75;681624;28;44371;-69
2021/11/20 01:06:03;;;;;;;915.28;851.00;;;;;;;13.10;67.59;101869.44;684056;28;44377;-69
2021/11/20 01:06:26;;;;;;;924.72;860.13;;;;;;;13.09;67.49;101863.16;684456;28;22367;-69
2021/11/20 01:06:48;;;;;;;932.17;867.30;;;;;;;13.07;67.28;101859.78;683199;28;67228;-69
2021/11/20 01:07:10;;;;;;;930.28;865.47;;;;;;;13.08;67.39;101860.63;682121;28;69407;-68
2021/11/20 01:07:35;;;;;;;921.80;857.30;;;;;;;13.07;67.15;101858.91;677319;28;115257;-69
2021/11/20 01:07:58;;;;;;;930.20;865.30;;;;;;;13.07;67.51;101862.50;680733;28;44353;-69
2021/11/20 01:08:24;;;;;;;920.13;855.72;;;;;;;13.07;67.31;101864.31;678224;29;90800;-69
2021/11/20 01:08:47;;;;;;;934.17;869.25;;;;;;;13.05;67.64;101866.38;678781;29;87361;-68
2021/11/20 01:09:11;;;;;;;934.75;869.95;;;;;;;13.06;67.59;101863.50;681984;28;69419;-69
2021/11/20 01:09:39;;;;;;;925.38;860.85;;;;;;;13.07;67.58;101864.31;680443;28;113587;-69
2021/11/20 01:10:01;;;;;;;929.78;865.03;;;;;;;13.08;67.28;101868.75;677423;28;138064;-68
2021/11/20 01:10:26;;;;;;;935.75;870.97;;;;;;;13.05;67.39;101866.38;680665;28;44352;-69
2021/11/20 01:10:51;;;;;;;929.78;865.10;;;;;;;13.08;67.55;101866.88;676564;29;115916;-69
2021/11/20 01:11:18;;;;;;;928.13;863.53;;;;;;;13.07;67.38;101873.34;676779;29;115085;-68
2021/11/20 01:11:43;;;;;;;924.38;859.83;;;;;;;13.08;67.59;101866.88;678071;28;137986;-69
2021/11/20 01:12:08;;;;;;;939.53;874.50;;;;;;;13.08;67.46;101857.91;679704;28;113428;-69
2021/11/20 01:12:30;;;;;;;924.95;860.38;;;;;;;13.06;67.48;101874.34;677410;28;115053;-70
2021/11/20 01:12:53;;;;;;;922.92;858.35;;;;;;;13.07;67.55;101865.19;681802;28;44371;-69
2021/11/20 01:13:15;;;;;;;920.25;855.75;;;;;;;13.06;67.64;101874.34;679713;28;69442;-68
2021/11/20 01:13:38;;;;;;;918.72;854.22;;;;;;;13.06;67.51;101874.34;680475;28;46302;-68
2021/11/20 01:14:03;;;;;;;924.92;860.20;;;;;;;13.07;67.52;101869.75;680420;28;69422;-69
2021/11/20 01:14:25;;;;;;;926.78;862.15;;;;;;;13.08;67.53;101866.03;679606;28;115455;-69
2021/11/20 01:14:49;;;;;;;933.95;869.03;;;;;;;13.09;67.59;101868.59;681977;28;44938;-69
2021/11/20 01:15:15;;;;;;;928.53;863.80;;;;;;;13.09;67.25;101870.47;681941;28;90460;-69
2021/11/20 01:15:40;;;;;;;942.13;876.92;;;;;;;13.08;67.39;101864.16;683797;28;137959;-69
2021/11/20 01:16:04;;;;;;;920.38;855.88;;;;;;;13.08;67.37;101866.88;683206;28;115097;-69
2021/11/20 01:16:28;;;;;;;931.72;866.97;;;;;;;13.08;67.66;101864.16;686661;28;92265;-68
2021/11/20 01:16:49;;;;;;;928.60;863.90;;;;;;;13.09;67.34;101875.88;687077;28;92380;-69
2021/11/20 01:17:12;;;;;;;926.42;861.83;;;;;;;13.09;67.33;101867.75;686113;28;22415;-69
2021/11/20 01:17:33;;;;;;;916.33;852.00;;;;;;;13.09;67.42;101875.88;683914;28;67458;-68
2021/11/20 01:17:57;;;;;;;921.50;856.72;;;;;;;13.09;67.58;101878.59;686145;28;45258;-69
2021/11/20 01:18:22;;;;;;;917.08;852.67;;;;;;;13.07;67.33;101875.19;686725;28;92642;-69
2021/11/20 01:18:44;;;;;;;921.58;857.08;;;;;;;13.06;67.42;101871.63;684344;28;91501;-69
2021/11/20 01:19:33;;;;;;;908.50;844.47;;;;;;;13.08;67.58;101879.59;676961;29;137197;-68
2021/11/20 01:19:59;;;;;;;909.63;845.40;;;;;;;13.09;67.67;101874.00;676106;29;138454;-69
2021/11/20 01:20:51;;;;;;;915.47;851.17;;;;;;;13.12;67.59;101865.53;685201;28;137310;-69
2021/11/20 01:21:14;;;;;;;913.80;849.55;;;;;;;13.12;67.33;101872.84;687024;28;90710;-69
2021/11/20 01:21:37;;;;;;;929.15;864.25;;;;;;;13.10;67.49;101867.59;684930;28;69368;-69
2021/11/20 01:22:03;;;;;;;920.42;855.78;;;;;;;13.09;67.43;101867.75;685634;28;46334;-68
2021/11/20 01:22:31;;;;;;;932.72;867.83;;;;;;;13.09;67.36;101875.88;681845;28;161017;-69
2021/11/20 01:23:15;;;;;;;922.10;857.60;;;;;;;13.07;67.30;101870.63;680753;28;157244;-68
2021/11/20 01:23:43;;;;;;;915.42;851.05;;;;;;;13.07;67.42;101878.75;685518;28;137969;-69
2021/11/20 01:24:08;;;;;;;930.20;865.38;;;;;;;13.08;67.40;101876.88;686190;28;115095;-69
2021/11/20 01:24:29;;;;;;;949.63;884.22;;;;;;;13.09;67.58;101873.16;684995;28;70169;-69
2021/11/20 01:24:54;;;;;;;920.50;855.92;;;;;;;13.09;67.37;101878.59;683013;28;91170;-69
2021/11/20 01:25:22;;;;;;;926.47;861.88;;;;;;;13.08;67.44;101872.31;681407;28;136382;-69
2021/11/20 01:26:21;;;;;;;934.55;869.67;;;;;;;13.07;67.57;101876.03;681539;28;137184;-69
2021/11/20 01:26:49;;;;;;;932.70;867.85;;;;;;;13.05;67.55;101863.66;684365;28;137490;-69
2021/11/20 01:27:12;;;;;;;935.47;870.53;;;;;;;13.07;67.56;101869.75;688115;28;92315;-68
2021/11/20 01:27:37;;;;;;;935.08;870.08;;;;;;;13.05;67.69;101871.78;688072;28;92189;-68
2021/11/20 01:28:36;;;;;;;925.13;860.63;;;;;;;13.04;67.47;101876.38;679819;28;135955;-70
2021/11/20 01:29:05;;;;;;;921.65;857.08;;;;;;;13.06;67.50;101878.94;688150;28;137400;-69
2021/11/20 01:29:29;;;;;;;933.97;869.10;;;;;;;13.06;67.58;101885.19;688431;28;38746;-69
2021/11/20 01:29:55;;;;;;;920.95;856.45;;;;;;;13.06;67.66;101874.34;683170;28;115223;-69
2021/11/20 01:30:18;;;;;;;911.60;847.38;;;;;;;13.08;67.46;101876.88;680996;28;92235;-69
2021/11/20 01:30:40;;;;;;;920.38;855.95;;;;;;;13.08;67.70;101879.59;680198;29;46276;-68
2021/11/20 01:31:04;;;;;;;921.72;857.20;;;;;;;13.08;67.61;101879.59;680409;29;46302;-69
2021/11/20 01:31:37;;;;;;;928.03;863.40;;;;;;;13.07;67.53;101869.75;679620;28;136878;-68
2021/11/20 01:31:59;;;;;;;930.97;866.08;;;;;;;13.08;67.70;101875.00;680031;28;136383;-69
2021/11/20 01:32:24;;;;;;;918.95;854.42;;;;;;;13.07;67.60;101873.34;681642;28;68044;-69
2021/11/20 01:32:46;;;;;;;931.57;866.63;;;;;;;13.06;67.56;101871.63;681339;28;69786;-69
2021/11/20 01:33:09;;;;;;;930.38;865.55;;;;;;;13.06;67.53;101876.22;679302;29;67507;-69
2021/11/20 01:33:31;;;;;;;942.88;877.70;;;;;;;13.06;67.51;101868.91;679611;28;69702;-69
2021/11/20 01:33:52;;;;;;;935.40;870.45;;;;;;;13.06;67.59;101873.50;681871;28;44413;-70
2021/11/20 01:34:16;;;;;;;927.33;862.72;;;;;;;13.04;67.49;101868.25;682131;28;21541;-69
2021/11/20 01:34:40;;;;;;;935.55;870.50;;;;;;;13.03;67.77;101871.97;680970;28;137667;-69
2021/11/20 01:35:03;;;;;;;930.05;865.20;;;;;;;13.04;67.59;101875.50;686462;28;22458;-69
2021/11/20 01:35:27;;;;;;;927.00;862.30;;;;;;;13.03;67.63;101874.66;682986;28;114705;-68
2021/11/20 01:35:58;;;;;;;925.55;860.78;;;;;;;13.03;67.72;101869.25;682507;28;138527;-69
2021/11/20 01:36:22;;;;;;;924.97;860.28;;;;;;;13.02;67.51;101867.53;684691;28;69124;-69
2021/11/20 01:36:44;;;;;;;933.33;868.28;;;;;;;13.04;67.59;101872.81;681217;28;92278;-68
2021/11/20 01:37:08;;;;;;;920.50;855.97;;;;;;;13.05;67.49;101867.22;682851;28;43120;-69
2021/11/20 01:37:38;;;;;;;925.53;860.88;;;;;;;13.06;67.50;101868.06;679081;28;137026;-69
2021/11/20 01:37:59;;;;;;;935.35;869.97;;;;;;;13.05;67.72;101866.38;683920;28;92395;-68
2021/11/20 01:38:21;;;;;;;918.35;853.85;;;;;;;13.04;67.63;101862.81;683385;28;21399;-69
2021/11/20 01:38:45;;;;;;;936.00;870.95;;;;;;;13.03;67.42;101863.81;681035;28;92062;-69
2021/11/20 01:39:25;;;;;;;929.20;864.53;;;;;;;13.05;67.68;101866.38;680246;28;137700;-69
2021/11/20 01:40:18;;;;;;;916.53;852.25;;;;;;;13.03;67.58;101866.53;681403;28;138513;-69
2021/11/20 01:40:42;;;;;;;931.90;867.03;;;;;;;13.06;67.50;101873.50;685081;28;115448;-69
2021/11/20 01:41:10;;;;;;;950.85;885.17;;;;;;;13.06;67.76;101862.66;682442;28;138443;-69
2021/11/20 01:41:40;;;;;;;939.20;873.75;;;;;;;13.05;67.50;101871.78;681497;28;136076;-69
2021/11/20 01:42:31;;;;;;;945.50;880.00;;;;;;;13.02;67.78;101870.25;680583;28;137338;-68
2021/11/20 01:43:06;;;;;;;934.08;868.83;;;;;;;13.02;67.72;101866.69;683639;28;180121;-68
2021/11/20 01:43:29;;;;;;;946.05;880.40;;;;;;;13.02;67.79;101864.81;688192;28;113924;-69
2021/11/20 01:43:56;;;;;;;947.53;881.83;;;;;;;13.06;67.79;101873.50;690495;28;23255;-69
2021/11/20 01:44:21;;;;;;;941.20;875.67;;;;;;;13.08;67.67;101866.03;683175;28;160809;-69
2021/11/20 01:44:49;;;;;;;943.58;877.95;;;;;;;13.07;67.36;101864.31;683292;28;160915;-69
2021/11/20 01:45:33;;;;;;;945.97;880.45;;;;;;;13.05;67.65;101860.94;684844;28;136464;-69
2021/11/20 01:45:58;;;;;;;958.63;892.60;;;;;;;13.04;67.82;101862.81;684937;28;136035;-68
2021/11/20 01:46:29;;;;;;;950.45;884.70;;;;;;;13.03;67.65;101861.13;680161;28;137924;-67
2021/11/20 01:46:54;;;;;;;953.20;887.22;;;;;;;13.04;67.55;101859.25;684952;28;69373;-69
2021/11/20 01:47:21;;;;;;;950.53;884.67;;;;;;;13.03;67.68;101863.81;679582;28;115371;-68
2021/11/20 01:47:46;;;;;;;958.45;892.13;;;;;;;13.03;67.58;101861.13;677438;28;138634;-69
2021/11/20 01:48:27;;;;;;;951.50;885.58;;;;;;;13.02;67.83;101853.97;678986;28;136247;-69
2021/11/20 01:49:02;;;;;;;950.70;884.85;;;;;;;13.04;67.87;101861.94;682460;28;136747;-69
2021/11/20 01:49:27;;;;;;;957.53;891.45;;;;;;;13.04;67.56;101859.25;684793;28;136029;-68
2021/11/20 01:49:53;;;;;;;957.00;890.75;;;;;;;13.03;67.54;101857.56;683264;28;92166;-69
2021/11/20 01:50:17;;;;;;;950.17;884.28;;;;;;;13.03;67.70;101857.56;682757;28;136524;-69
2021/11/20 01:50:41;;;;;;;966.47;899.97;;;;;;;13.03;67.81;101860.28;680700;28;90292;-69
2021/11/20 01:51:08;;;;;;;956.00;889.90;;;;;;;13.01;67.88;101867.69;680689;28;138093;-69
2021/11/20 01:51:32;;;;;;;965.25;898.90;;;;;;;13.04;67.76;101864.66;682681;28;115768;-69
2021/11/20 01:52:01;;;;;;;959.42;893.25;;;;;;;13.02;67.80;101861.28;682415;28;136355;-69